Time;durP1;ratioP1;P1;durP2;ratioP2;P2;SDS_P1;SDS_P2;PMS_P1;PMS_P2;Temp;Humidity;BMP_temperature;BMP_pressure;BME280_temperature;BME280_humidity;BME280_pressure;Samples;Min_cycle;Max_cycle;Signal;HPM_P1;HPM_P2
2023/04/30 00:01:37;;;;;;;21.33;11.55;;;9.40;99.90;;;;;;5103866;27;20031;-58
2023/04/30 00:04:03;;;;;;;19.15;11.70;;;9.50;99.90;;;;;;5104141;28;20059;-58
2023/04/30 00:06:30;;;;;;;17.20;11.88;;;9.40;99.90;;;;;;5104632;28;20048;-59
2023/04/30 00:08:56;;;;;;;17.25;11.82;;;9.30;99.90;;;;;;5104726;28;20027;-58
2023/04/30 00:11:21;;;;;;;18.60;12.38;;;9.30;99.90;;;;;;5102683;27;20075;-58
2023/04/30 00:13:47;;;;;;;16.55;11.85;;;9.20;99.90;;;;;;5099686;28;20111;-58
2023/04/30 00:16:12;;;;;;;19.00;12.18;;;9.20;99.90;;;;;;5103251;27;20039;-58
2023/04/30 00:18:38;;;;;;;16.48;11.73;;;9.30;99.90;;;;;;5104292;28;20115;-58
2023/04/30 00:21:04;;;;;;;16.38;12.25;;;9.30;99.90;;;;;;5104182;28;20075;-58
2023/04/30 00:23:29;;;;;;;22.20;12.48;;;9.30;99.90;;;;;;5103422;27;20395;-58
2023/04/30 00:25:55;;;;;;;19.33;12.75;;;9.30;99.90;;;;;;5104640;28;20165;-58
2023/04/30 00:28:21;;;;;;;19.35;12.43;;;9.10;99.90;;;;;;5103197;28;20040;-57
2023/04/30 00:30:47;;;;;;;19.00;12.30;;;9.10;99.90;;;;;;5103994;28;20046;-58
2023/04/30 00:33:13;;;;;;;18.40;12.98;;;9.10;99.90;;;;;;5103112;27;20035;-58
2023/04/30 00:35:38;;;;;;;19.50;12.40;;;9.00;99.90;;;;;;5103640;28;20634;-57
2023/04/30 00:38:04;;;;;;;20.42;12.77;;;9.00;99.90;;;;;;5103818;28;20041;-58
2023/04/30 00:40:30;;;;;;;16.70;11.80;;;9.10;99.90;;;;;;5104268;28;20031;-61
2023/04/30 00:42:55;;;;;;;20.10;12.90;;;9.20;99.90;;;;;;5104304;27;20118;-58
2023/04/30 00:45:22;;;;;;;18.20;12.68;;;9.10;99.90;;;;;;5103022;28;20031;-58
2023/04/30 00:47:48;;;;;;;17.40;12.20;;;9.10;99.90;;;;;;5103715;28;20348;-58
2023/04/30 00:50:15;;;;;;;16.23;11.23;;;9.00;99.90;;;;;;5103647;28;20031;-58
2023/04/30 00:52:41;;;;;;;18.00;12.52;;;9.00;99.90;;;;;;5103730;28;20046;-58
2023/04/30 00:55:08;;;;;;;18.13;11.50;;;9.00;99.90;;;;;;5103204;27;20699;-58
2023/04/30 00:57:35;;;;;;;16.20;10.98;;;9.10;99.90;;;;;;5103415;27;20054;-58
2023/04/30 01:00:01;;;;;;;16.05;11.77;;;9.00;99.90;;;;;;5103187;28;20063;-58
2023/04/30 01:02:27;;;;;;;15.90;11.30;;;9.00;99.90;;;;;;5103199;28;20039;-58
2023/04/30 01:04:54;;;;;;;15.00;11.73;;;8.80;99.90;;;;;;5103530;28;20024;-58
2023/04/30 01:07:19;;;;;;;20.48;12.38;;;8.70;99.90;;;;;;5102569;27;20027;-58
2023/04/30 01:09:45;;;;;;;17.23;11.60;;;8.50;99.90;;;;;;5103637;28;20085;-58
2023/04/30 01:12:25;;;;;;;18.50;12.00;;;8.50;99.90;;;;;;5103222;27;20027;-58
2023/04/30 01:15:16;;;;;;;14.95;11.85;;;8.40;99.90;;;;;;5103449;28;20396;-58
2023/04/30 01:18:02;;;;;;;16.48;12.05;;;8.40;99.90;;;;;;5114987;27;20043;-58
2023/04/30 01:20:29;;;;;;;16.73;12.02;;;8.60;99.90;;;;;;5103122;28;20036;-58
2023/04/30 01:23:11;;;;;;;18.05;12.20;;;8.70;99.90;;;;;;5103108;28;20123;-58
2023/04/30 01:25:49;;;;;;;18.02;12.55;;;8.60;99.90;;;;;;5086872;28;20035;-58
2023/04/30 01:28:16;;;;;;;17.65;12.45;;;8.50;99.90;;;;;;5101881;27;20480;-58
2023/04/30 01:30:45;;;;;;;20.90;12.90;;;8.50;99.90;;;;;;5102985;28;20039;-58
2023/04/30 01:33:11;;;;;;;20.40;13.52;;;8.60;99.90;;;;;;5102420;28;20031;-58
2023/04/30 01:35:40;;;;;;;22.20;13.45;;;8.60;99.90;;;;;;5103186;28;20028;-58
2023/04/30 01:38:15;;;;;;;18.45;12.68;;;8.60;99.90;;;;;;5102780;28;20118;-58
2023/04/30 01:40:56;;;;;;;20.40;13.73;;;8.50;99.90;;;;;;5090213;27;20048;-58
2023/04/30 01:43:55;;;;;;;19.08;13.18;;;8.50;99.90;;;;;;5101567;27;20596;-58
2023/04/30 01:46:28;;;;;;;19.27;12.85;;;8.50;99.90;;;;;;5072929;28;20130;-58
2023/04/30 01:48:57;;;;;;;17.70;12.63;;;8.50;99.90;;;;;;5102613;28;20035;-58
2023/04/30 01:51:54;;;;;;;18.92;13.20;;;8.30;99.90;;;;;;5101554;27;20031;-58
2023/04/30 01:54:35;;;;;;;27.40;13.38;;;8.30;99.90;;;;;;5083592;28;20377;-58
2023/04/30 01:57:09;;;;;;;19.63;13.10;;;8.40;99.90;;;;;;5102711;28;20105;-58
2023/04/30 01:59:38;;;;;;;21.15;13.30;;;8.30;99.90;;;;;;5102222;28;20745;-58
2023/04/30 02:02:05;;;;;;;21.08;13.05;;;8.20;99.90;;;;;;5093945;28;20124;-58
2023/04/30 02:04:30;;;;;;;20.40;12.48;;;8.20;99.90;;;;;;5094988;27;20527;-58
2023/04/30 02:06:57;;;;;;;20.25;13.43;;;8.00;99.90;;;;;;5102580;28;20035;-58
2023/04/30 02:09:23;;;;;;;19.00;13.75;;;7.90;99.90;;;;;;5102205;28;20034;-58
2023/04/30 02:11:49;;;;;;;18.23;13.40;;;7.90;99.90;;;;;;5103017;28;20115;-58
2023/04/30 02:14:14;;;;;;;18.15;13.00;;;8.00;99.90;;;;;;5101483;28;20115;-58
2023/04/30 02:16:40;;;;;;;19.52;13.90;;;8.00;99.90;;;;;;5116674;27;20031;-58
2023/04/30 02:19:06;;;;;;;16.65;11.93;;;8.00;99.90;;;;;;5101700;28;20476;-57
2023/04/30 02:21:31;;;;;;;21.17;13.30;;;8.00;99.90;;;;;;5102158;28;20051;-57
2023/04/30 02:23:57;;;;;;;19.52;13.38;;;8.00;99.90;;;;;;5095719;27;20036;-58
2023/04/30 02:26:22;;;;;;;21.65;13.13;;;8.10;99.90;;;;;;5091644;28;20020;-57
2023/04/30 02:28:48;;;;;;;21.88;13.50;;;8.20;99.90;;;;;;5083755;28;20413;-58
2023/04/30 02:31:13;;;;;;;20.08;13.85;;;8.20;99.90;;;;;;5101494;28;20584;-58
2023/04/30 02:33:39;;;;;;;20.67;13.50;;;8.10;99.90;;;;;;5102377;28;20604;-58
2023/04/30 02:36:05;;;;;;;20.75;13.65;;;8.10;99.90;;;;;;5101442;27;20470;-58
2023/04/30 02:38:30;;;;;;;20.80;14.02;;;8.00;99.90;;;;;;5102224;28;20119;-58
2023/04/30 02:40:56;;;;;;;17.50;13.27;;;8.00;99.90;;;;;;5101977;28;20772;-58
2023/04/30 02:43:22;;;;;;;19.75;14.02;;;8.10;99.90;;;;;;5101988;28;20110;-58
2023/04/30 02:45:47;;;;;;;18.77;13.75;;;8.10;99.90;;;;;;5101566;28;20842;-58
2023/04/30 02:48:13;;;;;;;20.13;14.07;;;8.00;99.90;;;;;;5101289;28;20039;-58
2023/04/30 02:50:38;;;;;;;20.30;14.45;;;8.10;99.90;;;;;;5102084;28;20028;-58
2023/04/30 02:53:04;;;;;;;20.42;13.32;;;8.20;99.90;;;;;;5101502;28;20032;-58
2023/04/30 02:55:30;;;;;;;18.67;13.77;;;8.00;99.90;;;;;;5101920;28;20024;-58
2023/04/30 02:57:56;;;;;;;19.42;13.70;;;7.80;99.90;;;;;;5093254;28;20035;-59
2023/04/30 03:00:22;;;;;;;16.73;13.35;;;7.80;99.90;;;;;;5101267;28;20043;-58
2023/04/30 03:02:47;;;;;;;19.10;13.63;;;7.80;99.90;;;;;;5101858;28;20031;-58
2023/04/30 03:05:14;;;;;;;18.10;13.07;;;7.90;99.90;;;;;;5101387;28;20497;-58
2023/04/30 03:07:40;;;;;;;18.52;12.50;;;7.80;99.90;;;;;;5101382;28;20074;-58
2023/04/30 03:10:06;;;;;;;20.23;14.07;;;7.90;99.90;;;;;;5101306;28;20124;-58
2023/04/30 03:12:32;;;;;;;20.35;13.90;;;7.80;99.90;;;;;;5102512;28;20395;-58
2023/04/30 03:14:57;;;;;;;21.92;14.93;;;7.90;99.90;;;;;;5104135;28;20027;-58
2023/04/30 03:17:23;;;;;;;20.30;14.68;;;7.60;99.90;;;;;;5104922;28;20106;-58
2023/04/30 03:19:50;;;;;;;21.60;15.30;;;7.60;99.90;;;;;;5104506;27;20036;-58
2023/04/30 03:22:18;;;;;;;22.55;16.10;;;7.60;99.90;;;;;;5104690;27;20043;-58
2023/04/30 03:24:44;;;;;;;25.45;16.33;;;7.60;99.90;;;;;;5105391;28;20078;-59
2023/04/30 03:27:09;;;;;;;23.65;16.00;;;7.80;99.90;;;;;;5104936;28;20055;-58
2023/04/30 03:29:35;;;;;;;28.45;17.52;;;7.80;99.90;;;;;;5101718;27;20044;-58
2023/04/30 03:32:00;;;;;;;22.90;16.20;;;7.80;99.90;;;;;;5100809;28;20648;-58
2023/04/30 03:34:26;;;;;;;21.75;15.98;;;7.70;99.90;;;;;;5105062;28;20705;-58
2023/04/30 03:36:51;;;;;;;23.23;16.13;;;7.70;99.90;;;;;;5105331;28;20051;-58
2023/04/30 03:39:17;;;;;;;22.60;15.52;;;7.60;99.90;;;;;;5104958;28;20032;-58
2023/04/30 03:41:43;;;;;;;24.00;15.80;;;7.60;99.90;;;;;;5089612;28;20031;-58
2023/04/30 03:44:14;;;;;;;24.38;16.15;;;7.60;99.90;;;;;;5104890;27;20045;-58
2023/04/30 03:46:43;;;;;;;19.73;15.23;;;7.60;99.90;;;;;;5105587;27;20035;-58
2023/04/30 03:49:09;;;;;;;21.42;15.25;;;7.40;99.90;;;;;;5104445;28;20040;-59
2023/04/30 03:51:38;;;;;;;23.50;16.25;;;7.40;99.90;;;;;;5104624;27;20695;-58
2023/04/30 03:54:05;;;;;;;23.10;15.32;;;7.40;99.90;;;;;;5104584;28;20506;-58
2023/04/30 03:56:31;;;;;;;20.52;14.60;;;7.30;99.90;;;;;;5105377;28;20132;-58
2023/04/30 03:58:57;;;;;;;20.85;15.18;;;7.10;99.90;;;;;;5105244;28;20036;-58
2023/04/30 04:01:22;;;;;;;20.48;15.60;;;7.00;99.90;;;;;;5103966;27;20039;-58
2023/04/30 04:03:48;;;;;;;20.42;15.02;;;7.00;99.90;;;;;;5096477;27;20080;-58
2023/04/30 04:06:14;;;;;;;20.30;14.68;;;7.00;99.90;;;;;;5104038;28;20088;-58
2023/04/30 04:08:42;;;;;;;20.90;14.43;;;7.10;99.90;;;;;;5104867;28;20028;-58
2023/04/30 04:11:11;;;;;;;20.73;15.00;;;7.10;99.90;;;;;;5104554;27;20039;-58
2023/04/30 04:13:36;;;;;;;22.27;15.90;;;7.20;99.90;;;;;;5097624;27;20057;-58
2023/04/30 04:16:02;;;;;;;26.65;16.23;;;7.30;99.90;;;;;;5086288;28;20523;-58
2023/04/30 04:18:27;;;;;;;24.73;17.10;;;7.30;99.90;;;;;;5104356;28;20356;-58
2023/04/30 04:20:54;;;;;;;24.85;16.95;;;7.20;99.90;;;;;;5104445;28;20055;-58
2023/04/30 04:23:20;;;;;;;25.38;16.80;;;7.10;99.90;;;;;;5103800;28;20096;-58
2023/04/30 04:25:48;;;;;;;25.55;17.08;;;7.20;99.90;;;;;;5103530;27;20031;-58
2023/04/30 04:28:15;;;;;;;26.45;16.98;;;7.20;99.90;;;;;;5103910;28;20028;-58
2023/04/30 04:30:40;;;;;;;23.42;16.77;;;7.20;99.90;;;;;;5085850;28;20109;-58
2023/04/30 04:33:06;;;;;;;22.75;16.67;;;7.30;99.90;;;;;;5103892;28;20063;-57
2023/04/30 04:35:32;;;;;;;27.17;17.55;;;7.30;99.90;;;;;;5100988;27;20652;-58
2023/04/30 04:37:57;;;;;;;24.20;16.48;;;7.30;99.90;;;;;;5092225;27;20028;-58
2023/04/30 04:40:23;;;;;;;24.48;16.80;;;7.30;99.90;;;;;;5103939;27;20043;-58
2023/04/30 04:42:50;;;;;;;24.00;17.08;;;7.30;99.90;;;;;;5104629;27;20035;-58
2023/04/30 04:45:16;;;;;;;25.27;16.70;;;7.20;99.90;;;;;;5103096;28;20031;-58
2023/04/30 04:47:42;;;;;;;22.73;16.55;;;7.20;99.90;;;;;;5103192;28;20084;-58
2023/04/30 04:50:08;;;;;;;25.95;16.60;;;7.30;99.90;;;;;;5103397;28;20036;-58
2023/04/30 04:52:34;;;;;;;28.15;18.05;;;7.40;99.90;;;;;;5104019;28;20364;-58
2023/04/30 04:55:00;;;;;;;22.73;16.58;;;7.40;99.90;;;;;;5104166;28;20036;-58
2023/04/30 04:57:25;;;;;;;23.52;16.77;;;7.40;99.90;;;;;;5101463;27;20074;-58
2023/04/30 04:59:51;;;;;;;26.55;17.83;;;7.60;99.90;;;;;;5103728;28;20118;-58
2023/04/30 05:02:17;;;;;;;32.33;19.13;;;7.80;99.90;;;;;;5103112;28;20031;-58
2023/04/30 05:04:42;;;;;;;32.53;18.77;;;7.90;99.90;;;;;;5103683;28;20032;-58
2023/04/30 05:07:09;;;;;;;29.70;20.05;;;7.80;99.90;;;;;;5103375;28;20119;-58
2023/04/30 05:09:35;;;;;;;28.75;19.10;;;7.90;99.90;;;;;;5086994;28;20482;-58
2023/04/30 05:12:01;;;;;;;28.58;19.40;;;7.90;99.90;;;;;;5085142;28;20055;-58
2023/04/30 05:14:26;;;;;;;29.80;19.85;;;7.90;99.90;;;;;;5103246;28;20070;-58
2023/04/30 05:16:52;;;;;;;29.48;20.15;;;7.70;99.90;;;;;;5102202;28;20039;-57
2023/04/30 05:19:17;;;;;;;30.23;19.83;;;7.70;99.90;;;;;;5102241;28;20028;-58
2023/04/30 05:21:43;;;;;;;31.52;20.35;;;7.90;99.90;;;;;;5103301;28;20055;-57
2023/04/30 05:24:08;;;;;;;31.23;21.30;;;8.00;99.90;;;;;;5102640;28;20039;-58
2023/04/30 05:26:34;;;;;;;30.58;21.60;;;8.10;99.90;;;;;;5103312;28;20070;-58
2023/04/30 05:28:59;;;;;;;35.88;21.42;;;8.00;99.90;;;;;;5103129;28;20043;-58
2023/04/30 05:31:25;;;;;;;29.80;21.60;;;8.20;99.90;;;;;;5076385;28;20040;-61
2023/04/30 05:33:51;;;;;;;29.33;21.48;;;8.20;99.90;;;;;;5103457;28;20019;-57
2023/04/30 05:36:16;;;;;;;31.23;21.75;;;8.20;99.90;;;;;;5102064;28;20247;-58
2023/04/30 05:38:42;;;;;;;30.58;21.67;;;8.30;99.90;;;;;;5102549;27;20081;-58
2023/04/30 05:41:11;;;;;;;31.90;21.00;;;8.60;99.90;;;;;;5102738;27;20131;-58
2023/04/30 05:43:36;;;;;;;28.15;20.90;;;8.60;99.90;;;;;;5102307;28;20028;-58
2023/04/30 05:46:02;;;;;;;28.73;19.58;;;8.60;99.90;;;;;;5102282;28;20088;-58
2023/04/30 05:48:28;;;;;;;27.10;19.52;;;8.60;99.90;;;;;;5102724;28;20066;-58
2023/04/30 05:50:54;;;;;;;30.90;20.58;;;9.00;99.90;;;;;;5103024;28;20047;-58
2023/04/30 05:53:20;;;;;;;31.52;20.83;;;8.90;99.90;;;;;;5093604;27;20051;-57
2023/04/30 05:55:45;;;;;;;25.38;18.38;;;8.90;99.90;;;;;;5102656;28;20015;-57
2023/04/30 05:58:11;;;;;;;25.75;18.38;;;8.90;99.90;;;;;;5101852;27;20039;-58
2023/04/30 06:00:38;;;;;;;22.83;17.38;;;9.20;99.90;;;;;;5102410;28;20031;-58
2023/04/30 06:03:03;;;;;;;24.10;17.23;;;9.30;99.90;;;;;;5102250;28;20158;-58
2023/04/30 06:05:29;;;;;;;22.98;15.90;;;9.50;99.90;;;;;;5102060;27;20063;-58
2023/04/30 06:07:54;;;;;;;19.00;14.80;;;9.70;99.90;;;;;;5102651;28;20031;-57
2023/04/30 06:10:20;;;;;;;18.10;13.32;;;9.90;99.90;;;;;;5101913;28;20124;-58
2023/04/30 06:12:45;;;;;;;20.45;13.63;;;9.90;99.90;;;;;;5102703;27;20055;-58
2023/04/30 06:15:11;;;;;;;19.23;13.38;;;9.90;99.90;;;;;;5100735;28;20799;-58
2023/04/30 06:17:37;;;;;;;18.15;13.50;;;9.90;99.90;;;;;;5101957;28;20032;-58
2023/04/30 06:20:05;;;;;;;19.08;13.52;;;10.00;99.90;;;;;;5101812;28;20333;-58
2023/04/30 06:22:32;;;;;;;19.75;13.30;;;10.10;99.90;;;;;;5101775;28;20039;-58
2023/04/30 06:24:57;;;;;;;17.77;13.73;;;10.20;99.90;;;;;;5102186;28;20035;-57
2023/04/30 06:27:24;;;;;;;17.90;13.25;;;10.30;99.90;;;;;;5085059;28;20027;-58
2023/04/30 06:29:49;;;;;;;20.13;14.07;;;10.30;99.90;;;;;;5102108;28;20126;-58
2023/04/30 06:32:15;;;;;;;18.70;13.70;;;10.40;99.90;;;;;;5101599;28;20118;-57
2023/04/30 06:34:41;;;;;;;20.50;15.40;;;10.60;99.90;;;;;;5101885;28;20032;-60
2023/04/30 06:37:06;;;;;;;21.05;15.63;;;10.90;99.90;;;;;;5101002;28;20047;-58
2023/04/30 06:39:32;;;;;;;22.75;16.73;;;10.90;99.90;;;;;;5102170;28;20038;-58
2023/04/30 06:41:57;;;;;;;23.42;16.92;;;10.80;99.90;;;;;;5101897;28;20032;-58
2023/04/30 06:44:23;;;;;;;20.75;15.65;;;10.90;99.90;;;;;;5101708;28;20133;-58
2023/04/30 06:46:49;;;;;;;24.83;17.05;;;11.10;99.90;;;;;;5102215;28;20035;-58
2023/04/30 06:49:14;;;;;;;24.95;16.65;;;11.30;99.90;;;;;;5087665;28;20108;-58
2023/04/30 06:51:41;;;;;;;24.40;17.38;;;11.20;99.90;;;;;;5087778;28;20036;-58
2023/04/30 06:54:07;;;;;;;14.82;12.30;;;11.40;99.90;;;;;;5105380;28;20462;-58
2023/04/30 06:56:32;;;;;;;18.83;12.90;;;11.20;99.90;;;;;;5087751;28;20027;-58
2023/04/30 06:58:58;;;;;;;17.45;13.05;;;10.90;99.90;;;;;;5080786;28;20048;-58
2023/04/30 07:01:23;;;;;;;16.55;11.60;;;10.90;99.90;;;;;;5104307;28;20043;-58
2023/04/30 07:03:51;;;;;;;18.27;13.38;;;11.10;99.90;;;;;;5105773;28;20024;-58
2023/04/30 07:06:16;;;;;;;17.70;12.63;;;11.30;99.90;;;;;;5104604;28;20071;-58
2023/04/30 07:08:42;;;;;;;20.45;13.57;;;11.40;99.90;;;;;;5105881;28;20054;-58
2023/04/30 07:11:08;;;;;;;16.48;12.48;;;11.40;99.90;;;;;;5105475;27;20638;-58
2023/04/30 07:13:34;;;;;;;19.30;13.00;;;11.20;99.90;;;;;;5122398;27;20034;-58
2023/04/30 07:15:59;;;;;;;18.58;14.45;;;11.50;99.90;;;;;;5105462;28;20122;-58
2023/04/30 07:18:25;;;;;;;16.70;12.45;;;11.50;99.90;;;;;;5104912;28;20039;-58
2023/04/30 07:20:50;;;;;;;23.23;15.77;;;11.60;99.90;;;;;;5104600;27;20031;-58
2023/04/30 07:23:16;;;;;;;23.08;15.52;;;11.90;99.90;;;;;;5104706;28;20176;-58
2023/04/30 07:25:41;;;;;;;22.48;14.98;;;12.00;99.90;;;;;;5087194;28;20116;-58
2023/04/30 07:28:07;;;;;;;24.45;17.27;;;12.30;99.90;;;;;;5105078;28;20032;-58
2023/04/30 07:30:33;;;;;;;24.05;15.88;;;12.00;99.90;;;;;;5105628;28;20043;-59
2023/04/30 07:32:58;;;;;;;20.42;14.15;;;12.10;99.90;;;;;;5104427;28;20042;-58
2023/04/30 07:35:24;;;;;;;21.40;14.02;;;12.00;99.90;;;;;;5104321;28;20066;-58
2023/04/30 07:37:50;;;;;;;22.75;13.65;;;12.00;99.90;;;;;;5105064;27;20783;-58
2023/04/30 07:40:15;;;;;;;17.48;12.50;;;12.20;99.90;;;;;;5104614;28;20044;-58
2023/04/30 07:42:41;;;;;;;16.27;11.38;;;12.00;99.90;;;;;;5101131;27;20034;-58
2023/04/30 07:45:07;;;;;;;15.20;11.50;;;11.90;99.90;;;;;;5100637;28;20058;-58
2023/04/30 07:47:33;;;;;;;18.23;12.07;;;12.00;99.90;;;;;;5104290;28;20032;-58
2023/04/30 07:49:59;;;;;;;17.77;11.82;;;12.10;99.90;;;;;;5104467;28;20257;-58
2023/04/30 07:52:24;;;;;;;18.25;12.77;;;12.20;99.90;;;;;;5104151;27;20028;-58
2023/04/30 07:54:50;;;;;;;22.00;14.82;;;12.40;99.90;;;;;;5090864;27;20374;-58
2023/04/30 07:57:16;;;;;;;20.80;13.25;;;12.30;99.90;;;;;;5101159;28;20039;-58
2023/04/30 07:59:41;;;;;;;19.85;13.60;;;12.40;99.90;;;;;;5103753;28;20357;-58
2023/04/30 08:02:08;;;;;;;19.52;12.55;;;12.70;99.90;;;;;;5103429;27;20035;-58
2023/04/30 08:04:34;;;;;;;17.10;12.48;;;12.90;99.90;;;;;;5103677;27;20674;-58
2023/04/30 08:07:00;;;;;;;18.25;11.63;;;13.10;99.90;;;;;;5104551;28;20804;-58
2023/04/30 08:09:26;;;;;;;17.60;11.63;;;13.10;99.90;;;;;;5103967;28;20069;-58
2023/04/30 08:11:52;;;;;;;14.90;10.82;;;12.60;99.90;;;;;;5086365;28;20067;-59
2023/04/30 08:14:18;;;;;;;15.07;9.73;;;12.50;99.90;;;;;;5103449;28;20135;-58
2023/04/30 08:16:44;;;;;;;14.20;9.77;;;12.70;99.90;;;;;;5090800;27;20047;-58
2023/04/30 08:19:10;;;;;;;14.18;9.82;;;12.60;99.90;;;;;;5103268;28;20028;-58
2023/04/30 08:21:35;;;;;;;15.77;10.23;;;12.90;99.90;;;;;;5103663;28;20036;-58
2023/04/30 08:24:01;;;;;;;13.20;9.95;;;12.90;99.90;;;;;;5104396;28;20415;-58
2023/04/30 08:26:27;;;;;;;13.10;10.43;;;12.80;99.90;;;;;;5103284;27;20032;-58
2023/04/30 08:28:52;;;;;;;14.57;9.60;;;13.20;99.90;;;;;;5103628;27;20056;-58
2023/04/30 08:31:18;;;;;;;15.85;8.82;;;13.50;99.90;;;;;;5103001;27;20054;-58
2023/04/30 08:33:43;;;;;;;12.52;8.65;;;13.70;99.90;;;;;;5103950;28;20047;-58
2023/04/30 08:36:09;;;;;;;14.18;8.63;;;13.80;99.90;;;;;;5103501;28;20118;-58
2023/04/30 08:38:35;;;;;;;10.57;8.68;;;13.20;99.90;;;;;;5092035;27;20113;-58
2023/04/30 08:41:07;;;;;;;13.35;10.20;;;13.10;99.90;;;;;;5098918;28;20027;-58
2023/04/30 08:43:34;;;;;;;11.45;9.43;;;13.30;99.90;;;;;;5102795;28;20382;-58
2023/04/30 08:46:01;;;;;;;12.52;9.20;;;13.10;99.90;;;;;;5103386;27;20054;-58
2023/04/30 08:48:28;;;;;;;15.07;9.30;;;13.30;99.90;;;;;;5102748;28;20032;-58
2023/04/30 08:50:53;;;;;;;12.07;9.02;;;13.80;99.90;;;;;;5103978;28;20964;-58
2023/04/30 08:53:20;;;;;;;14.88;10.68;;;13.90;99.90;;;;;;5103096;28;20160;-58
2023/04/30 08:55:46;;;;;;;16.35;10.75;;;14.00;99.90;;;;;;5103340;28;20432;-58
2023/04/30 08:58:11;;;;;;;17.23;10.70;;;14.20;99.90;;;;;;5102770;28;20032;-58
2023/04/30 09:00:41;;;;;;;16.67;10.73;;;13.90;99.90;;;;;;5095186;27;20197;-58
2023/04/30 09:03:07;;;;;;;14.43;10.13;;;13.90;99.90;;;;;;5102819;28;20039;-58
2023/04/30 09:05:32;;;;;;;15.98;11.13;;;14.30;99.90;;;;;;5091739;28;20380;-58
2023/04/30 09:07:58;;;;;;;15.90;10.40;;;14.40;99.90;;;;;;5107184;27;20039;-58
2023/04/30 09:10:24;;;;;;;18.25;10.00;;;14.20;99.90;;;;;;5104040;27;20371;-58
2023/04/30 09:13:07;;;;;;;12.32;9.32;;;14.20;99.90;;;;;;5100711;28;20038;-58
2023/04/30 09:15:34;;;;;;;13.05;9.23;;;14.20;99.90;;;;;;5083018;27;20035;-58
2023/04/30 09:18:11;;;;;;;10.55;8.25;;;14.10;99.90;;;;;;5097786;27;20523;-58
2023/04/30 09:20:37;;;;;;;11.93;9.18;;;14.20;99.90;;;;;;5102894;27;20042;-58
2023/04/30 09:23:08;;;;;;;13.77;9.45;;;14.50;99.90;;;;;;5102505;28;20042;-58
2023/04/30 09:25:41;;;;;;;11.23;8.90;;;14.80;99.90;;;;;;5102551;28;20030;-58
2023/04/30 09:28:11;;;;;;;13.65;9.00;;;14.80;99.90;;;;;;5117578;27;20036;-58
2023/04/30 09:30:37;;;;;;;10.23;7.97;;;14.60;99.90;;;;;;5102723;28;20096;-58
2023/04/30 09:33:03;;;;;;;10.80;7.88;;;14.50;99.90;;;;;;5102245;28;20413;-58
2023/04/30 09:35:33;;;;;;;9.85;7.80;;;14.20;99.90;;;;;;5102323;28;20035;-58
2023/04/30 09:38:02;;;;;;;9.85;7.82;;;14.30;99.90;;;;;;5118153;27;20031;-58
2023/04/30 09:40:39;;;;;;;12.93;8.98;;;14.30;99.90;;;;;;5102055;28;20059;-58
2023/04/30 09:43:05;;;;;;;11.20;8.60;;;14.40;99.90;;;;;;5102668;27;20133;-58
2023/04/30 09:45:46;;;;;;;12.82;7.53;;;14.60;99.90;;;;;;5101995;28;20085;-58
2023/04/30 09:48:11;;;;;;;9.73;6.78;;;14.60;99.90;;;;;;5101833;28;20547;-58
2023/04/30 09:50:39;;;;;;;9.68;6.70;;;14.70;99.90;;;;;;5089652;28;20092;-58
2023/04/30 09:53:09;;;;;;;6.25;5.53;;;14.90;99.90;;;;;;5097721;28;20517;-58
2023/04/30 09:55:36;;;;;;;7.93;5.53;;;15.10;99.90;;;;;;5084003;28;20038;-58
2023/04/30 09:58:06;;;;;;;8.63;6.40;;;14.90;99.90;;;;;;5101369;27;20031;-57
2023/04/30 10:00:35;;;;;;;8.07;6.30;;;14.70;99.90;;;;;;5098990;27;20141;-58
2023/04/30 10:03:11;;;;;;;7.88;6.18;;;14.80;99.90;;;;;;5097397;28;20467;-59
2023/04/30 10:05:41;;;;;;;7.35;5.10;;;14.90;99.90;;;;;;5096444;27;20035;-59
2023/04/30 10:08:18;;;;;;;9.88;5.80;;;15.00;99.90;;;;;;5101859;28;20043;-58
2023/04/30 10:10:49;;;;;;;8.30;5.80;;;15.20;99.90;;;;;;5102146;28;20045;-58
2023/04/30 10:13:18;;;;;;;7.38;4.63;;;15.20;99.90;;;;;;5094475;28;20035;-59
2023/04/30 10:15:53;;;;;;;6.72;4.38;;;15.10;99.90;;;;;;5117458;27;20088;-58
2023/04/30 10:18:26;;;;;;;6.13;3.72;;;15.20;99.90;;;;;;5101301;28;20039;-59
2023/04/30 10:20:53;;;;;;;6.38;4.53;;;15.20;99.90;;;;;;5101762;28;20658;-59
2023/04/30 10:23:20;;;;;;;7.20;5.32;;;15.40;99.90;;;;;;5100177;28;20459;-58
2023/04/30 10:25:47;;;;;;;8.88;4.90;;;15.50;99.90;;;;;;5102231;28;20035;-58
2023/04/30 10:28:13;;;;;;;5.53;4.00;;;15.50;99.90;;;;;;5100709;28;20372;-58
2023/04/30 10:30:41;;;;;;;7.50;4.15;;;15.50;99.90;;;;;;5083426;28;20093;-59
2023/04/30 10:33:50;;;;;;;5.72;3.70;;;15.40;99.90;;;;;;5100487;27;20047;-58
2023/04/30 10:36:49;;;;;;;7.00;4.38;;;15.60;99.90;;;;;;5073916;28;20069;-58
2023/04/30 10:39:18;;;;;;;6.75;4.18;;;15.70;99.90;;;;;;5101260;28;20032;-58
2023/04/30 10:41:48;;;;;;;8.35;5.18;;;15.70;99.90;;;;;;5102522;28;20120;-59
2023/04/30 10:44:20;;;;;;;6.63;4.07;;;15.90;99.90;;;;;;5102476;28;20116;-59
2023/04/30 10:46:46;;;;;;;4.80;3.45;;;15.80;99.90;;;;;;5102691;28;20047;-59
2023/04/30 10:49:13;;;;;;;7.03;4.35;;;15.90;99.90;;;;;;5098136;28;20028;-58
2023/04/30 10:51:57;;;;;;;4.78;3.63;;;15.90;99.90;;;;;;5101451;28;20126;-59
2023/04/30 10:54:27;;;;;;;5.68;3.65;;;16.00;99.90;;;;;;5100970;27;20038;-59
2023/04/30 10:57:07;;;;;;;5.60;3.47;;;16.10;99.90;;;;;;5101375;27;20526;-59
2023/04/30 10:59:33;;;;;;;5.10;3.28;;;16.10;99.90;;;;;;5101373;28;20135;-60
2023/04/30 11:02:00;;;;;;;3.83;2.55;;;16.30;99.90;;;;;;5101311;28;20461;-59
2023/04/30 11:04:26;;;;;;;4.85;3.03;;;16.30;99.90;;;;;;5100988;28;20032;-59
2023/04/30 11:06:55;;;;;;;6.53;3.65;;;16.20;99.90;;;;;;5100882;28;20031;-59
2023/04/30 11:09:46;;;;;;;4.70;3.70;;;16.20;99.90;;;;;;5101160;28;20038;-59
2023/04/30 11:12:27;;;;;;;4.43;3.03;;;16.40;99.90;;;;;;5096333;28;20024;-59
2023/04/30 11:15:19;;;;;;;5.18;3.55;;;16.60;99.90;;;;;;5100769;28;20031;-59
2023/04/30 11:17:47;;;;;;;4.40;2.55;;;16.60;99.90;;;;;;5097016;28;20035;-59
2023/04/30 11:20:18;;;;;;;3.88;2.88;;;16.70;99.90;;;;;;5100332;27;20130;-59
2023/04/30 11:22:44;;;;;;;5.55;2.90;;;16.70;99.90;;;;;;5101418;28;20539;-59
2023/04/30 11:25:14;;;;;;;5.40;3.50;;;16.40;99.90;;;;;;5100588;28;20035;-59
2023/04/30 11:27:43;;;;;;;6.85;3.53;;;16.40;99.90;;;;;;5101244;28;20426;-59
2023/04/30 11:30:13;;;;;;;4.55;3.00;;;16.50;99.90;;;;;;5092200;28;20108;-59
2023/04/30 11:32:40;;;;;;;4.40;2.63;;;16.60;99.90;;;;;;5101336;28;20604;-59
2023/04/30 11:35:06;;;;;;;4.10;3.00;;;16.80;99.90;;;;;;5101333;28;20483;-59
2023/04/30 11:37:43;;;;;;;4.72;2.97;;;16.90;99.90;;;;;;5086231;28;20467;-59
2023/04/30 11:40:13;;;;;;;4.50;2.72;;;16.70;99.90;;;;;;5103811;27;20050;-59
2023/04/30 11:42:42;;;;;;;4.63;3.03;;;16.50;99.90;;;;;;5105355;27;20039;-59
2023/04/30 11:45:10;;;;;;;4.78;2.97;;;16.70;99.90;;;;;;5104446;28;20078;-59
2023/04/30 11:47:43;;;;;;;4.50;3.45;;;16.80;99.90;;;;;;5090950;28;20093;-59
2023/04/30 11:50:10;;;;;;;3.70;2.90;;;16.90;99.90;;;;;;5103613;28;20035;-59
2023/04/30 11:52:37;;;;;;;4.32;3.20;;;16.80;99.90;;;;;;5104561;27;20035;-59
2023/04/30 11:55:11;;;;;;;5.80;3.72;;;16.60;99.90;;;;;;5104371;28;20087;-59
2023/04/30 11:57:46;;;;;;;7.22;3.80;;;16.50;99.90;;;;;;5104378;28;20114;-59
2023/04/30 12:00:13;;;;;;;6.10;3.80;;;16.50;99.90;;;;;;5103430;27;20042;-60
2023/04/30 12:02:39;;;;;;;5.28;3.58;;;16.50;99.90;;;;;;5103710;27;20407;-59
2023/04/30 12:05:12;;;;;;;5.13;3.97;;;16.70;99.90;;;;;;5103689;28;20122;-59
2023/04/30 12:07:38;;;;;;;5.20;3.80;;;16.60;99.90;;;;;;5089959;28;20320;-59
2023/04/30 12:10:04;;;;;;;5.40;3.75;;;16.50;99.90;;;;;;5104175;28;20533;-59
2023/04/30 12:12:30;;;;;;;6.22;3.30;;;16.50;99.90;;;;;;5101600;27;20044;-59
2023/04/30 12:14:56;;;;;;;4.13;3.38;;;16.60;99.90;;;;;;5098773;28;20106;-60
2023/04/30 12:17:34;;;;;;;5.70;4.05;;;16.70;99.90;;;;;;5102910;28;20233;-58
2023/04/30 12:20:00;;;;;;;7.55;3.90;;;16.60;99.90;;;;;;5104123;28;20508;-59
2023/04/30 12:22:26;;;;;;;5.10;3.80;;;16.70;99.90;;;;;;5103343;27;20550;-59
2023/04/30 12:24:54;;;;;;;4.78;3.72;;;16.80;99.90;;;;;;5089501;27;20028;-59
2023/04/30 12:27:21;;;;;;;4.82;3.38;;;16.80;99.90;;;;;;5100987;28;20100;-59
2023/04/30 12:29:48;;;;;;;3.88;3.25;;;17.00;99.90;;;;;;5103656;28;20047;-59
2023/04/30 12:32:17;;;;;;;4.00;3.55;;;17.20;99.90;;;;;;5103411;28;20566;-59
2023/04/30 12:34:43;;;;;;;4.22;3.55;;;17.20;99.90;;;;;;5103364;27;20142;-59
2023/04/30 12:37:09;;;;;;;4.07;2.85;;;17.10;99.90;;;;;;5103150;28;20038;-59
2023/04/30 12:39:35;;;;;;;3.42;2.72;;;17.20;99.90;;;;;;5086909;28;20027;-59
2023/04/30 12:42:03;;;;;;;3.88;2.90;;;17.10;99.90;;;;;;5103593;28;20120;-59